createdAt,value
2022-10-13T00:00:58.043Z,77.03
2022-10-13T00:03:25.236Z,75.72
2022-10-13T00:05:52.452Z,74.54
2022-10-13T00:08:21.293Z,74.58
2022-10-13T00:10:49.644Z,75.30
2022-10-13T00:13:20.046Z,75.93
2022-10-13T00:15:47.617Z,76.27
2022-10-13T00:18:15.376Z,76.55
2022-10-13T00:20:52.347Z,76.64
2022-10-13T00:23:19.395Z,75.09
2022-10-13T00:25:47.698Z,74.60
2022-10-13T00:28:15.665Z,74.63
2022-10-13T00:30:43.041Z,75.19
2022-10-13T00:33:11.475Z,75.67
2022-10-13T00:35:48.352Z,76.56
2022-10-13T00:38:16.731Z,77.39
2022-10-13T00:40:55.964Z,77.25
2022-10-13T00:43:27.750Z,75.49
2022-10-13T00:45:54.768Z,74.76
2022-10-13T00:48:28.853Z,74.51
2022-10-13T00:50:56.362Z,75.18
2022-10-13T00:53:24.304Z,75.76
2022-10-13T00:55:51.457Z,76.12
2022-10-13T00:58:19.687Z,76.40
2022-10-13T01:00:47.706Z,77.11
2022-10-13T01:03:17.961Z,77.22
2022-10-13T01:05:44.969Z,75.81
2022-10-13T01:08:12.529Z,75.05
2022-10-13T01:10:49.757Z,74.76
2022-10-13T01:13:28.989Z,75.24
2022-10-13T01:16:12.287Z,75.88
2022-10-13T01:18:47.309Z,76.16
2022-10-13T01:21:33.501Z,76.79
2022-10-13T01:24:28.223Z,77.00
2022-10-13T01:27:14.064Z,75.44
2022-10-13T01:30:04.530Z,74.89
2022-10-13T01:32:47.695Z,74.94
2022-10-13T01:35:17.915Z,75.23
2022-10-13T01:37:54.169Z,75.71
2022-10-13T01:40:30.834Z,76.38
2022-10-13T01:42:58.202Z,76.58
2022-10-13T01:45:29.736Z,76.45
2022-10-13T01:47:57.028Z,74.88
2022-10-13T01:50:24.020Z,74.26
2022-10-13T01:52:51.231Z,74.40
2022-10-13T01:55:18.269Z,74.51
2022-10-13T01:57:45.726Z,74.91
2022-10-13T02:00:15.346Z,75.54
2022-10-13T02:03:12.969Z,76.07
2022-10-13T02:05:52.276Z,76.81
2022-10-13T02:08:26.082Z,76.47
2022-10-13T02:11:00.852Z,74.77
2022-10-13T02:13:28.534Z,74.18
2022-10-13T02:15:58.018Z,74.45
2022-10-13T02:18:30.761Z,74.68
2022-10-13T02:20:57.864Z,75.28
2022-10-13T02:23:24.754Z,75.70
2022-10-13T02:25:51.859Z,76.23
2022-10-13T02:28:19.051Z,76.94
2022-10-13T02:30:46.463Z,77.46
2022-10-13T02:33:14.519Z,76.29
2022-10-13T02:35:42.201Z,75.58
2022-10-13T02:38:09.654Z,75.88
2022-10-13T02:40:36.888Z,75.94
2022-10-13T02:43:04.052Z,76.04
2022-10-13T02:45:31.109Z,76.97
2022-10-13T02:47:58.478Z,78.34
2022-10-13T02:50:25.502Z,77.84
2022-10-13T02:52:53.464Z,76.84
2022-10-13T02:55:20.725Z,75.90
2022-10-13T02:57:48.055Z,75.67
2022-10-13T03:00:15.859Z,76.07
2022-10-13T03:02:42.992Z,76.82
2022-10-13T03:05:10.484Z,77.20
2022-10-13T03:07:37.452Z,77.70
2022-10-13T03:10:05.367Z,78.39
2022-10-13T03:12:32.346Z,76.88
2022-10-13T03:14:59.185Z,76.22
2022-10-13T03:17:26.251Z,76.01
2022-10-13T03:19:53.174Z,76.32
2022-10-13T03:22:20.229Z,76.64
2022-10-13T03:24:47.462Z,77.06
2022-10-13T03:27:14.487Z,78.19
2022-10-13T03:29:41.559Z,78.50
2022-10-13T03:32:08.787Z,77.00
2022-10-13T03:34:35.768Z,77.45
2022-10-13T03:37:02.777Z,78.14
2022-10-13T03:39:33.415Z,78.96
2022-10-13T03:42:00.324Z,79.35
2022-10-13T03:44:27.405Z,79.30
2022-10-13T03:46:54.245Z,79.47
2022-10-13T03:49:21.211Z,79.49
2022-10-13T03:51:48.349Z,78.65
2022-10-13T03:54:15.326Z,78.15
2022-10-13T03:56:43.660Z,78.92
2022-10-13T03:59:12.106Z,79.20
2022-10-13T04:01:39.321Z,79.53
2022-10-13T04:04:08.060Z,80.14
2022-10-13T04:06:35.009Z,80.52
2022-10-13T04:09:01.984Z,79.45
2022-10-13T04:11:29.082Z,78.41
2022-10-13T04:13:57.495Z,77.80
2022-10-13T04:16:29.345Z,77.83
2022-10-13T04:18:58.901Z,77.91
2022-10-13T04:21:26.215Z,78.63
2022-10-13T04:23:57.561Z,79.47
2022-10-13T04:26:26.006Z,79.64
2022-10-13T04:28:53.888Z,78.49
2022-10-13T04:31:22.326Z,78.21
2022-10-13T04:33:50.112Z,78.04
2022-10-13T04:36:17.101Z,77.76
2022-10-13T04:38:45.160Z,77.90
2022-10-13T04:41:12.758Z,78.17
2022-10-13T04:43:39.777Z,79.16
2022-10-13T04:46:14.035Z,79.85
2022-10-13T04:48:41.142Z,78.91
2022-10-13T04:51:10.338Z,77.96
2022-10-13T04:53:37.507Z,77.32
2022-10-13T04:56:09.473Z,77.33
2022-10-13T04:58:36.822Z,77.82
2022-10-13T05:01:05.445Z,78.42
2022-10-13T05:03:33.254Z,78.72
2022-10-13T05:06:00.299Z,78.72
2022-10-13T05:08:27.252Z,77.85
2022-10-13T05:10:55.219Z,77.12
2022-10-13T05:13:22.790Z,76.88
2022-10-13T05:15:50.240Z,76.92
2022-10-13T05:18:18.916Z,77.10
2022-10-13T05:20:47.089Z,77.69
2022-10-13T05:23:14.680Z,78.34
2022-10-13T05:25:41.677Z,78.11
2022-10-13T05:28:11.004Z,76.95
2022-10-13T05:30:38.197Z,76.28
2022-10-13T05:33:05.503Z,76.19
2022-10-13T05:35:32.432Z,76.35
2022-10-13T05:37:59.495Z,76.94
2022-10-13T05:40:26.852Z,77.18
2022-10-13T05:42:56.456Z,77.42
2022-10-13T05:45:23.507Z,77.66
2022-10-13T05:47:50.546Z,76.81
2022-10-13T05:50:17.705Z,75.81
2022-10-13T05:52:44.755Z,75.82
2022-10-13T05:55:11.794Z,75.96
2022-10-13T05:57:42.665Z,76.42
2022-10-13T06:00:12.213Z,76.36
2022-10-13T06:02:44.550Z,76.78
2022-10-13T06:05:14.186Z,76.53
2022-10-13T06:07:41.265Z,75.36
2022-10-13T06:10:09.085Z,74.42
2022-10-13T06:12:36.483Z,74.49
2022-10-13T06:15:04.756Z,74.95
2022-10-13T06:17:31.640Z,75.00
2022-10-13T06:20:00.216Z,75.41
2022-10-13T06:22:27.191Z,75.77
2022-10-13T06:24:54.277Z,76.26
2022-10-13T06:27:21.327Z,75.97
2022-10-13T06:29:49.908Z,73.54
2022-10-13T06:32:17.334Z,73.29
2022-10-13T06:34:44.685Z,73.33
2022-10-13T06:37:11.774Z,73.01
2022-10-13T06:39:38.791Z,73.02
2022-10-13T06:42:05.871Z,73.42
2022-10-13T06:44:37.833Z,73.58
2022-10-13T06:47:05.685Z,72.76
2022-10-13T06:49:32.742Z,73.29
2022-10-13T06:51:59.682Z,73.00
2022-10-13T06:54:26.761Z,69.67
2022-10-13T06:56:53.880Z,68.76
2022-10-13T06:59:21.429Z,69.27
2022-10-13T07:01:49.104Z,69.10
2022-10-13T07:04:16.884Z,69.53
2022-10-13T07:06:43.928Z,69.60
2022-10-13T07:09:10.961Z,70.53
2022-10-13T07:11:39.028Z,69.59
2022-10-13T07:14:06.077Z,69.65
2022-10-13T07:16:33.105Z,70.25
2022-10-13T07:19:01.827Z,69.53
2022-10-13T07:21:30.496Z,70.15
2022-10-13T07:23:57.429Z,70.55
2022-10-13T07:26:25.212Z,69.48
2022-10-13T07:28:52.196Z,67.63
2022-10-13T07:31:20.341Z,67.14
2022-10-13T07:33:49.281Z,66.80
2022-10-13T07:36:16.845Z,66.54
2022-10-13T07:38:43.821Z,67.35
2022-10-13T07:41:11.265Z,66.82
2022-10-13T07:43:38.427Z,67.23
2022-10-13T07:46:08.246Z,65.71
2022-10-13T07:48:35.393Z,66.34
2022-10-13T07:51:10.757Z,66.56
2022-10-13T07:53:40.511Z,66.12
2022-10-13T07:56:09.109Z,66.37
2022-10-13T07:58:37.552Z,65.87
2022-10-13T08:01:04.864Z,67.45
2022-10-13T08:03:33.079Z,67.36
2022-10-13T08:06:00.723Z,67.72
2022-10-13T08:08:27.975Z,67.14
2022-10-13T08:10:55.047Z,67.58
2022-10-13T08:13:23.796Z,67.29
2022-10-13T08:15:50.720Z,67.20
2022-10-13T08:18:57.060Z,65.89
2022-10-13T08:24:16.386Z,61.51
2022-10-13T08:26:44.392Z,62.54
2022-10-13T08:29:27.019Z,63.84
2022-10-13T08:31:54.629Z,62.61
2022-10-13T08:34:27.471Z,61.17
2022-10-13T08:36:56.793Z,61.97
2022-10-13T08:39:24.794Z,61.84
2022-10-13T08:41:52.166Z,60.00
2022-10-13T08:47:28.933Z,61.20
2022-10-13T08:50:00.274Z,60.94
2022-10-13T08:52:29.899Z,60.95
2022-10-13T08:54:57.554Z,61.53
2022-10-13T08:57:30.272Z,60.19
2022-10-13T08:59:59.386Z,59.16
2022-10-13T09:02:32.919Z,59.21
2022-10-13T09:05:05.931Z,58.27
2022-10-13T09:07:39.509Z,56.51
2022-10-13T09:10:08.997Z,56.67
2022-10-13T09:12:37.967Z,55.08
2022-10-13T09:15:11.861Z,56.19
2022-10-13T09:17:42.098Z,55.97
2022-10-13T09:20:28.293Z,55.73
2022-10-13T09:23:03.552Z,55.12
2022-10-13T09:25:43.170Z,55.85
2022-10-13T09:28:23.382Z,54.23
2022-10-13T09:31:11.690Z,53.84
2022-10-13T09:33:42.859Z,53.94
2022-10-13T09:36:15.865Z,53.01
2022-10-13T09:39:22.459Z,53.16
2022-10-13T09:41:51.311Z,53.56
2022-10-13T09:44:28.506Z,53.22
2022-10-13T09:46:58.145Z,52.25
2022-10-13T09:49:38.534Z,50.24
2022-10-13T09:52:20.482Z,49.47
2022-10-13T09:54:53.677Z,44.36
2022-10-13T09:57:25.183Z,44.92
2022-10-13T10:00:06.505Z,44.23
2022-10-13T10:03:09.934Z,44.30
2022-10-13T10:05:51.461Z,42.20
2022-10-13T10:09:02.813Z,42.80
2022-10-13T10:11:45.151Z,41.45
2022-10-13T10:14:39.847Z,43.28
2022-10-13T10:17:31.821Z,42.44
2022-10-13T10:20:21.928Z,45.33
2022-10-13T10:22:54.032Z,45.36
2022-10-13T10:25:42.965Z,45.01
2022-10-13T10:28:36.717Z,42.02
2022-10-13T10:31:53.178Z,42.72
2022-10-13T10:34:27.513Z,42.96
2022-10-13T10:37:13.717Z,42.21
2022-10-13T10:39:48.640Z,40.84
2022-10-13T10:42:51.845Z,42.68
2022-10-13T10:45:25.399Z,42.39
2022-10-13T10:47:56.189Z,43.07
2022-10-13T10:50:24.455Z,40.69
2022-10-13T10:53:01.223Z,39.80
2022-10-13T10:55:50.186Z,39.56
2022-10-13T10:58:49.531Z,40.38
2022-10-13T11:01:32.958Z,39.41
2022-10-13T11:04:25.881Z,41.25
2022-10-13T11:06:53.229Z,42.14
2022-10-13T11:09:41.482Z,41.59
2022-10-13T11:12:21.778Z,42.67
2022-10-13T11:15:11.100Z,41.31
2022-10-13T11:17:39.695Z,43.38
2022-10-13T11:20:36.121Z,43.18
2022-10-13T11:23:03.374Z,43.43
2022-10-13T11:25:44.042Z,43.95
2022-10-13T11:28:23.934Z,43.36
2022-10-13T11:30:55.647Z,44.00
2022-10-13T11:33:38.307Z,44.30
2022-10-13T11:36:43.422Z,44.09
2022-10-13T11:42:21.802Z,43.56
2022-10-13T11:44:52.462Z,43.14
2022-10-13T11:47:38.556Z,43.56
2022-10-13T11:50:44.621Z,44.12
2022-10-13T11:53:14.842Z,44.52
2022-10-13T11:55:58.788Z,41.91
2022-10-13T11:58:30.529Z,43.90
2022-10-13T12:01:01.688Z,45.26
2022-10-13T12:03:39.091Z,44.50
2022-10-13T12:06:35.923Z,43.73
2022-10-13T12:09:05.599Z,42.02
2022-10-13T12:11:34.469Z,42.83
2022-10-13T12:14:02.497Z,41.92
2022-10-13T12:16:30.256Z,42.77
2022-10-13T12:19:08.518Z,43.65
2022-10-13T12:21:48.721Z,43.39
2022-10-13T12:24:15.877Z,42.68
2022-10-13T12:26:43.123Z,42.17
2022-10-13T12:29:17.482Z,41.61
2022-10-13T12:31:46.233Z,41.89
2022-10-13T12:34:25.673Z,42.66
2022-10-13T12:36:56.209Z,43.26
2022-10-13T12:39:25.402Z,41.41
2022-10-13T12:41:52.646Z,41.97
2022-10-13T12:44:30.635Z,41.80
2022-10-13T12:46:59.558Z,41.86
2022-10-13T12:49:36.253Z,42.27
2022-10-13T12:52:09.315Z,42.38
2022-10-13T12:54:41.224Z,44.11
2022-10-13T12:57:19.893Z,41.99
2022-10-13T12:59:46.913Z,42.93
2022-10-13T13:02:30.943Z,42.95
2022-10-13T13:04:58.028Z,43.89
2022-10-13T13:07:29.579Z,44.16
2022-10-13T13:10:18.544Z,43.10
2022-10-13T13:12:46.404Z,43.13
2022-10-13T13:15:25.739Z,42.93
2022-10-13T13:17:59.004Z,43.48
2022-10-13T13:20:31.868Z,42.39
2022-10-13T13:22:59.169Z,42.73
2022-10-13T13:25:26.108Z,43.75
2022-10-13T13:27:53.367Z,44.35
2022-10-13T13:30:21.619Z,44.91
2022-10-13T13:32:48.806Z,45.08
2022-10-13T13:35:15.941Z,44.51
2022-10-13T13:37:48.109Z,44.45
2022-10-13T13:40:17.629Z,43.89
2022-10-13T13:42:44.664Z,43.17
2022-10-13T13:45:15.842Z,43.92
2022-10-13T13:47:42.975Z,44.39
2022-10-13T13:50:21.476Z,44.54
2022-10-13T13:52:57.221Z,44.74
2022-10-13T13:55:24.921Z,45.40
2022-10-13T13:57:51.940Z,45.96
2022-10-13T14:00:19.263Z,46.72
2022-10-13T14:02:49.839Z,47.15
2022-10-13T14:05:17.278Z,47.39
2022-10-13T14:07:44.182Z,47.92
2022-10-13T14:10:11.370Z,47.92
2022-10-13T14:12:38.413Z,49.51
2022-10-13T14:15:06.327Z,49.86
2022-10-13T14:17:33.435Z,49.23
2022-10-13T14:20:00.673Z,48.79
2022-10-13T14:22:27.713Z,49.36
2022-10-13T14:24:55.088Z,49.30
2022-10-13T14:27:22.062Z,50.12
2022-10-13T14:29:49.078Z,49.86
2022-10-13T14:32:16.879Z,49.59
2022-10-13T14:34:43.994Z,50.23
2022-10-13T14:37:11.016Z,50.91
2022-10-13T14:39:38.018Z,51.07
2022-10-13T14:42:05.039Z,51.22
2022-10-13T14:44:31.999Z,51.78
2022-10-13T14:46:58.927Z,52.63
2022-10-13T14:49:26.213Z,54.17
2022-10-13T14:51:53.323Z,54.26
2022-10-13T14:54:20.249Z,54.35
2022-10-13T14:56:47.229Z,54.73
2022-10-13T14:59:14.165Z,54.95
2022-10-13T15:01:42.163Z,55.14
2022-10-13T15:04:09.205Z,55.13
2022-10-13T15:06:41.239Z,55.21
2022-10-13T15:11:36.561Z,56.28
2022-10-13T15:14:03.555Z,57.44
2022-10-13T15:16:33.390Z,57.62
2022-10-13T15:19:00.780Z,58.20
2022-10-13T15:21:28.073Z,58.15
2022-10-13T15:23:56.240Z,58.76
2022-10-13T15:26:23.250Z,58.96
2022-10-13T15:31:05.678Z,60.16
2022-10-13T15:33:33.028Z,61.06
2022-10-13T15:35:59.956Z,61.82
2022-10-13T15:38:27.129Z,62.57
2022-10-13T15:40:59.594Z,63.54
2022-10-13T15:43:27.094Z,64.20
2022-10-13T15:45:56.046Z,64.56
2022-10-13T15:48:23.294Z,65.06
2022-10-13T15:50:50.264Z,65.49
2022-10-13T15:53:17.501Z,66.32
2022-10-13T15:55:44.546Z,66.89
2022-10-13T15:58:13.958Z,65.46
2022-10-13T16:00:41.516Z,64.62
2022-10-13T16:03:15.295Z,64.42
2022-10-13T16:05:43.498Z,64.83
2022-10-13T16:08:10.732Z,65.86
2022-10-13T16:10:42.089Z,66.25
2022-10-13T16:13:10.357Z,67.37
2022-10-13T16:15:37.405Z,68.05
2022-10-13T16:18:04.573Z,68.88
2022-10-13T16:20:37.830Z,69.87
2022-10-13T16:23:05.158Z,70.13
2022-10-13T16:25:32.366Z,69.79
2022-10-13T16:28:00.099Z,68.03
2022-10-13T16:30:28.085Z,67.13
2022-10-13T16:32:55.161Z,66.46
2022-10-13T16:35:23.303Z,67.05
2022-10-13T16:37:50.317Z,68.45
2022-10-13T16:40:17.613Z,69.56
2022-10-13T16:42:45.678Z,69.93
2022-10-13T16:45:13.543Z,70.39
2022-10-13T16:47:40.593Z,70.91
2022-10-13T16:50:09.970Z,71.14
2022-10-13T16:52:38.007Z,71.47
2022-10-13T16:55:05.725Z,70.57
2022-10-13T16:57:32.994Z,69.84
2022-10-13T17:00:00.049Z,69.64
2022-10-13T17:02:28.557Z,69.93
2022-10-13T17:04:55.551Z,70.20
2022-10-13T17:07:22.959Z,70.08
2022-10-13T17:09:50.368Z,70.18
2022-10-13T17:12:18.132Z,71.79
2022-10-13T17:14:45.298Z,72.22
2022-10-13T17:17:12.431Z,73.13
2022-10-13T17:19:39.617Z,73.72
2022-10-13T17:22:06.621Z,72.35
2022-10-13T17:24:33.670Z,71.98
2022-10-13T17:27:00.735Z,72.02
2022-10-13T17:29:28.589Z,72.47
2022-10-13T17:31:56.251Z,73.13
2022-10-13T17:34:23.113Z,73.76
2022-10-13T17:36:51.654Z,74.74
2022-10-13T17:39:18.720Z,75.27
2022-10-13T17:41:45.765Z,75.36
2022-10-13T17:44:13.180Z,74.14
2022-10-13T17:46:40.302Z,73.32
2022-10-13T17:49:08.141Z,73.37
2022-10-13T17:51:35.313Z,73.81
2022-10-13T17:54:02.534Z,74.30
2022-10-13T17:56:30.033Z,74.96
2022-10-13T17:58:57.144Z,74.86
2022-10-13T18:01:26.594Z,75.46
2022-10-13T18:03:55.487Z,75.09
2022-10-13T18:06:32.626Z,73.70
2022-10-13T18:09:05.930Z,72.88
2022-10-13T18:11:34.239Z,72.48
2022-10-13T18:14:01.139Z,72.53
2022-10-13T18:16:28.184Z,73.21
2022-10-13T18:18:55.457Z,73.77
2022-10-13T18:21:24.322Z,74.55
2022-10-13T18:23:52.200Z,75.05
2022-10-13T18:26:19.760Z,74.26
2022-10-13T18:28:47.546Z,73.44
2022-10-13T18:31:21.831Z,73.08
2022-10-13T18:33:52.075Z,73.52
2022-10-13T18:36:23.498Z,74.09
2022-10-13T18:38:51.685Z,74.28
2022-10-13T18:41:19.464Z,74.53
2022-10-13T18:43:46.493Z,75.42
2022-10-13T18:46:14.184Z,76.58
2022-10-13T18:48:41.221Z,77.02
2022-10-13T18:51:13.057Z,75.65
2022-10-13T18:53:41.977Z,74.78
2022-10-13T19:03:47.300Z,77.21
2022-10-13T19:06:15.393Z,78.06
2022-10-13T19:08:43.393Z,78.13
2022-10-13T19:11:16.579Z,76.50
2022-10-13T19:13:44.337Z,75.17
2022-10-13T19:16:15.624Z,74.83
2022-10-13T19:18:42.754Z,75.07
2022-10-13T19:21:09.991Z,75.71
2022-10-13T19:23:37.157Z,76.06
2022-10-13T19:26:13.900Z,76.80
2022-10-13T19:28:42.573Z,78.46
2022-10-13T19:31:11.312Z,79.04
2022-10-13T19:33:44.223Z,78.00
2022-10-13T19:36:12.545Z,76.68
2022-10-13T19:38:39.553Z,76.49
2022-10-13T19:41:07.042Z,77.72
2022-10-13T19:43:34.004Z,78.33
2022-10-13T19:46:00.941Z,78.15
2022-10-13T19:48:28.617Z,78.28
2022-10-13T19:50:55.674Z,78.09
2022-10-13T19:53:22.686Z,76.26
2022-10-13T19:55:50.044Z,75.57
2022-10-13T19:58:17.194Z,75.86
2022-10-13T20:00:45.089Z,76.29
2022-10-13T20:03:13.288Z,76.54
2022-10-13T20:05:42.242Z,76.84
2022-10-13T20:08:10.393Z,77.64
2022-10-13T20:10:41.118Z,77.86
2022-10-13T20:13:08.815Z,77.92
2022-10-13T20:15:42.850Z,76.49
2022-10-13T20:18:13.078Z,76.15
2022-10-13T20:20:41.141Z,76.18
2022-10-13T20:23:09.170Z,76.09
2022-10-13T20:25:39.185Z,76.12
2022-10-13T20:28:06.235Z,76.74
2022-10-13T20:30:33.536Z,77.21
2022-10-13T20:33:00.941Z,77.89
2022-10-13T20:35:28.071Z,78.33
2022-10-13T20:37:55.168Z,77.62
2022-10-13T20:40:22.590Z,76.91
2022-10-13T20:42:51.524Z,76.61
2022-10-13T20:45:20.279Z,76.70
2022-10-13T20:47:48.860Z,77.17
2022-10-13T20:50:16.006Z,77.44
2022-10-13T20:52:43.048Z,77.84
2022-10-13T20:55:10.554Z,78.08
2022-10-13T20:57:37.549Z,77.25
2022-10-13T21:00:05.840Z,76.61
2022-10-13T21:02:32.793Z,76.58
2022-10-13T21:04:59.820Z,76.70
2022-10-13T21:07:28.709Z,77.29
2022-10-13T21:09:55.656Z,77.79
2022-10-13T21:12:22.590Z,78.89
2022-10-13T21:14:49.875Z,78.87
2022-10-13T21:17:17.008Z,77.68
2022-10-13T21:19:44.089Z,76.90
2022-10-13T21:22:11.195Z,76.70
2022-10-13T21:24:38.122Z,76.49
2022-10-13T21:27:05.096Z,76.69
2022-10-13T21:29:33.060Z,77.12
2022-10-13T21:32:00.208Z,77.57
2022-10-13T21:34:27.252Z,78.05
2022-10-13T21:36:54.141Z,78.55
2022-10-13T21:39:21.082Z,77.64
2022-10-13T21:41:48.189Z,76.92
2022-10-13T21:44:15.233Z,76.88
2022-10-13T21:46:42.279Z,76.94
2022-10-13T21:49:09.742Z,77.07
2022-10-13T21:51:38.225Z,77.15
2022-10-13T21:54:11.049Z,77.22
2022-10-13T21:56:38.456Z,78.12
2022-10-13T21:59:05.348Z,78.41
2022-10-13T22:01:32.756Z,77.29
2022-10-13T22:04:00.950Z,76.60
2022-10-13T22:06:28.596Z,76.49
2022-10-13T22:08:56.939Z,76.57
2022-10-13T22:11:25.877Z,77.04
2022-10-13T22:13:52.906Z,77.49
2022-10-13T22:16:21.682Z,77.96
2022-10-13T22:18:48.862Z,78.29
2022-10-13T22:21:17.978Z,78.50
2022-10-13T22:23:45.306Z,77.29
2022-10-13T22:26:12.853Z,76.85
2022-10-13T22:28:39.899Z,76.31
2022-10-13T22:31:12.149Z,76.70
2022-10-13T22:33:40.045Z,77.18
2022-10-13T22:36:12.573Z,77.51
2022-10-13T22:38:39.387Z,78.00
2022-10-13T22:41:07.542Z,78.61
2022-10-13T22:43:34.797Z,78.91
2022-10-13T22:46:12.267Z,77.94
2022-10-13T22:48:40.970Z,77.26
2022-10-13T22:51:19.680Z,77.22
2022-10-13T22:53:46.748Z,77.56
2022-10-13T22:56:15.919Z,77.75
2022-10-13T22:58:42.865Z,77.72
2022-10-13T23:01:11.705Z,78.16
2022-10-13T23:03:38.977Z,78.40
2022-10-13T23:06:06.961Z,78.76
2022-10-13T23:08:34.239Z,77.47
2022-10-13T23:11:01.586Z,76.86
2022-10-13T23:13:28.487Z,77.49
2022-10-13T23:16:08.325Z,78.13
2022-10-13T23:18:38.390Z,78.09
2022-10-13T23:21:06.736Z,77.97
2022-10-13T23:23:34.329Z,78.24
2022-10-13T23:26:03.612Z,78.89
2022-10-13T23:28:31.434Z,79.10
2022-10-13T23:31:02.540Z,78.16
2022-10-13T23:33:29.887Z,77.50
2022-10-13T23:35:57.575Z,77.39
2022-10-13T23:38:24.902Z,77.52
2022-10-13T23:40:52.050Z,77.74
2022-10-13T23:43:19.610Z,78.10
2022-10-13T23:45:46.659Z,78.76
2022-10-13T23:48:14.034Z,79.19
2022-10-13T23:50:41.168Z,79.63
2022-10-13T23:53:08.242Z,78.50
2022-10-13T23:55:39.199Z,77.46
2022-10-13T23:58:06.285Z,77.22
